Time;durP1;ratioP1;P1;durP2;ratioP2;P2;SDS_P1;SDS_P2;PMS_P1;PMS_P2;Temp;Humidity;BMP_temperature;BMP_pressure;BME280_temperature;BME280_humidity;BME280_pressure;Samples;Min_cycle;Max_cycle;Signal;HPM_P1;HPM_P2
2022/04/27 00:00:28;;;;;;;6.60;4.70;;;;;;;;;;5055222;28;20079;-76
2022/04/27 00:02:54;;;;;;;9.18;5.40;;;;;;;;;;5055128;28;20031;-77
2022/04/27 00:05:19;;;;;;;10.88;5.28;;;;;;;;;;5055279;28;20028;-77
2022/04/27 00:07:45;;;;;;;7.68;5.18;;;;;;;;;;5055826;28;20473;-77
2022/04/27 00:10:10;;;;;;;6.63;4.82;;;;;;;;;;5055530;28;20040;-77
2022/04/27 00:12:37;;;;;;;8.75;4.63;;;;;;;;;;5054162;28;20028;-77
2022/04/27 00:15:06;;;;;;;8.35;4.78;;;;;;;;;;5054982;28;20025;-77
2022/04/27 00:17:31;;;;;;;6.93;4.95;;;;;;;;;;5055025;28;20112;-77
2022/04/27 00:19:57;;;;;;;7.20;4.70;;;;;;;;;;5054536;28;20091;-77
2022/04/27 00:22:22;;;;;;;7.65;4.65;;;;;;;;;;5055245;28;20025;-77
2022/04/27 00:24:48;;;;;;;6.38;4.75;;;;;;;;;;5055508;28;20032;-77
2022/04/27 00:27:13;;;;;;;9.88;4.85;;;;;;;;;;5055300;28;20024;-77
2022/04/27 00:29:38;;;;;;;7.47;4.90;;;;;;;;;;5054773;28;20112;-77
2022/04/27 00:32:04;;;;;;;9.97;5.23;;;;;;;;;;5055082;28;20024;-77
2022/04/27 00:34:29;;;;;;;8.32;5.50;;;;;;;;;;5053583;28;20345;-77
2022/04/27 00:36:54;;;;;;;6.47;4.60;;;;;;;;;;5055472;28;20102;-77
2022/04/27 00:39:19;;;;;;;7.82;5.20;;;;;;;;;;5054442;28;20242;-77
2022/04/27 00:42:00;;;;;;;7.57;5.07;;;;;;;;;;5054170;28;20027;-77
2022/04/27 00:44:27;;;;;;;8.85;5.25;;;;;;;;;;5054846;28;20475;-77
2022/04/27 00:46:52;;;;;;;7.03;4.72;;;;;;;;;;5055067;28;20079;-77
2022/04/27 00:49:17;;;;;;;7.18;4.93;;;;;;;;;;5053354;28;20021;-78
2022/04/27 00:51:43;;;;;;;7.35;5.03;;;;;;;;;;5055122;28;20067;-77
2022/04/27 00:54:08;;;;;;;7.78;5.30;;;;;;;;;;5054086;28;20390;-77
2022/04/27 00:56:34;;;;;;;9.23;4.65;;;;;;;;;;5052926;28;20036;-76
2022/04/27 00:58:59;;;;;;;8.75;4.95;;;;;;;;;;5054245;28;20098;-77
2022/04/27 01:01:24;;;;;;;7.07;5.10;;;;;;;;;;5054066;28;20028;-77
2022/04/27 01:03:50;;;;;;;7.83;4.43;;;;;;;;;;5052713;28;20496;-78
2022/04/27 01:06:15;;;;;;;7.30;4.75;;;;;;;;;;5054671;28;20730;-78
2022/04/27 01:08:41;;;;;;;7.03;4.72;;;;;;;;;;5054857;28;20035;-78
2022/04/27 01:11:06;;;;;;;6.95;4.72;;;;;;;;;;5053350;28;20094;-78
2022/04/27 01:13:32;;;;;;;7.47;4.80;;;;;;;;;;5054162;28;20033;-76
2022/04/27 01:15:57;;;;;;;6.55;4.88;;;;;;;;;;5053849;28;20131;-76
2022/04/27 01:18:22;;;;;;;9.25;4.50;;;;;;;;;;5053934;28;20069;-77
2022/04/27 01:20:50;;;;;;;6.40;4.27;;;;;;;;;;5053949;28;20111;-77
2022/04/27 01:23:16;;;;;;;6.20;4.40;;;;;;;;;;5052292;28;20273;-76
2022/04/27 01:25:48;;;;;;;6.55;4.80;;;;;;;;;;5053709;28;20478;-77
2022/04/27 01:28:19;;;;;;;6.35;4.57;;;;;;;;;;5054245;28;20508;-78
2022/04/27 01:30:46;;;;;;;6.10;4.55;;;;;;;;;;5053942;28;20025;-78
2022/04/27 01:33:12;;;;;;;6.15;4.40;;;;;;;;;;5053732;28;20082;-77
2022/04/27 01:35:38;;;;;;;7.63;4.53;;;;;;;;;;5053323;28;20447;-77
2022/04/27 01:38:03;;;;;;;19.73;4.97;;;;;;;;;;5053693;28;20078;-77
2022/04/27 01:40:29;;;;;;;10.00;4.60;;;;;;;;;;5052611;28;20486;-77
2022/04/27 01:42:54;;;;;;;6.15;4.38;;;;;;;;;;5052678;28;20021;-77
2022/04/27 01:45:20;;;;;;;6.68;4.65;;;;;;;;;;5052474;28;20055;-77
2022/04/27 01:47:45;;;;;;;7.75;4.88;;;;;;;;;;5053941;28;20029;-77
2022/04/27 01:50:10;;;;;;;6.57;4.47;;;;;;;;;;5053803;28;20029;-77
2022/04/27 01:55:19;;;;;;;7.55;4.80;;;;;;;;;;5053997;28;20242;-77
2022/04/27 01:57:45;;;;;;;8.07;4.70;;;;;;;;;;5053317;28;20441;-77
2022/04/27 02:00:11;;;;;;;7.25;5.05;;;;;;;;;;5053136;28;20175;-77
2022/04/27 02:02:36;;;;;;;7.40;4.88;;;;;;;;;;5053041;28;20032;-76
2022/04/27 02:05:02;;;;;;;7.37;4.83;;;;;;;;;;5053113;28;20021;-77
2022/04/27 02:07:28;;;;;;;7.43;5.05;;;;;;;;;;5051968;28;20273;-77
2022/04/27 02:09:53;;;;;;;7.33;4.77;;;;;;;;;;5052879;28;20025;-77
2022/04/27 02:12:18;;;;;;;9.80;5.13;;;;;;;;;;5052845;28;20344;-76
2022/04/27 02:14:43;;;;;;;8.67;5.10;;;;;;;;;;5052561;28;20040;-77
2022/04/27 02:17:09;;;;;;;11.43;5.07;;;;;;;;;;5052862;28;20262;-76
2022/04/27 02:19:35;;;;;;;10.63;5.25;;;;;;;;;;5053071;28;20262;-77
2022/04/27 02:22:00;;;;;;;7.70;5.13;;;;;;;;;;5053625;28;20017;-77
2022/04/27 02:24:26;;;;;;;9.65;5.78;;;;;;;;;;5053017;28;20025;-77
2022/04/27 02:26:52;;;;;;;22.42;9.90;;;;;;;;;;5051768;28;20052;-78
2022/04/27 02:29:18;;;;;;;11.75;6.25;;;;;;;;;;5052803;28;20021;-76
2022/04/27 02:31:43;;;;;;;10.27;6.50;;;;;;;;;;5053047;28;20443;-77
2022/04/27 02:34:09;;;;;;;9.45;5.95;;;;;;;;;;5051377;28;20048;-77
2022/04/27 02:36:35;;;;;;;8.35;5.43;;;;;;;;;;5053104;28;20028;-77
2022/04/27 02:39:00;;;;;;;8.75;5.30;;;;;;;;;;5052898;28;20020;-77
2022/04/27 02:41:25;;;;;;;8.15;5.28;;;;;;;;;;5052862;28;20036;-78
2022/04/27 02:43:51;;;;;;;10.60;4.78;;;;;;;;;;5052910;28;20467;-77
2022/04/27 02:46:16;;;;;;;9.30;5.07;;;;;;;;;;5052903;28;20098;-76
2022/04/27 02:51:48;;;;;;;10.15;5.00;;;;;;;;;;5052647;28;20099;-77
2022/04/27 02:54:11;;;;;;;9.80;5.25;;;;;;;;;;5052475;28;20474;-77
2022/04/27 02:56:36;;;;;;;10.73;6.03;;;;;;;;;;5052615;28;20104;-77
2022/04/27 02:59:01;;;;;;;7.75;5.05;;;;;;;;;;5052842;28;20297;-77
2022/04/27 03:01:26;;;;;;;11.45;5.25;;;;;;;;;;5052679;28;20100;-77
2022/04/27 03:03:51;;;;;;;9.17;4.97;;;;;;;;;;5054221;28;20029;-77
2022/04/27 03:06:17;;;;;;;8.97;5.00;;;;;;;;;;5056395;28;20257;-77
2022/04/27 03:08:42;;;;;;;6.93;4.77;;;;;;;;;;5056462;28;20266;-76
2022/04/27 03:11:07;;;;;;;8.38;4.93;;;;;;;;;;5056103;28;20292;-77
2022/04/27 03:13:32;;;;;;;7.43;4.90;;;;;;;;;;5056102;28;20033;-77
2022/04/27 03:15:57;;;;;;;10.27;5.50;;;;;;;;;;5056869;28;20312;-77
2022/04/27 03:18:23;;;;;;;7.00;4.90;;;;;;;;;;5056012;28;20262;-77
2022/04/27 03:20:49;;;;;;;8.70;4.80;;;;;;;;;;5055010;28;20056;-76
2022/04/27 03:23:15;;;;;;;9.70;5.10;;;;;;;;;;5056016;28;20293;-77
2022/04/27 03:25:41;;;;;;;7.32;4.97;;;;;;;;;;5054677;28;20115;-77
2022/04/27 03:28:06;;;;;;;6.78;4.55;;;;;;;;;;5055094;28;20503;-76
2022/04/27 03:30:32;;;;;;;10.75;4.88;;;;;;;;;;5055987;28;20024;-76
2022/04/27 03:32:59;;;;;;;10.80;5.78;;;;;;;;;;5055839;28;20025;-77
2022/04/27 03:35:25;;;;;;;9.55;5.40;;;;;;;;;;5054678;28;20017;-77
2022/04/27 03:37:50;;;;;;;8.27;5.22;;;;;;;;;;5054552;28;20020;-77
2022/04/27 03:40:15;;;;;;;10.10;5.68;;;;;;;;;;5054422;28;20024;-77
2022/04/27 03:42:40;;;;;;;11.40;6.38;;;;;;;;;;5055728;28;20441;-77
2022/04/27 03:45:06;;;;;;;9.13;5.40;;;;;;;;;;5055528;28;20117;-77
2022/04/27 03:47:32;;;;;;;13.38;5.90;;;;;;;;;;5054353;28;20057;-77
2022/04/27 03:50:04;;;;;;;7.85;5.15;;;;;;;;;;5054200;28;20055;-77
2022/04/27 03:52:30;;;;;;;7.60;5.10;;;;;;;;;;5056424;28;20363;-77
2022/04/27 03:54:59;;;;;;;8.00;4.93;;;;;;;;;;5055551;28;20029;-77
2022/04/27 03:57:25;;;;;;;6.85;4.72;;;;;;;;;;5055849;28;20028;-77
2022/04/27 03:59:50;;;;;;;7.63;4.97;;;;;;;;;;5055525;28;20446;-77
2022/04/27 04:02:15;;;;;;;9.05;4.93;;;;;;;;;;5055411;28;20379;-76
2022/04/27 04:04:40;;;;;;;10.10;5.43;;;;;;;;;;5053733;28;20508;-77
2022/04/27 04:07:05;;;;;;;9.53;4.90;;;;;;;;;;5055131;28;20795;-76
2022/04/27 04:09:31;;;;;;;7.57;4.87;;;;;;;;;;5054717;28;20745;-78
2022/04/27 04:11:56;;;;;;;7.28;4.82;;;;;;;;;;5055186;28;20297;-76
2022/04/27 04:14:21;;;;;;;10.87;4.50;;;;;;;;;;5054937;28;20025;-76
2022/04/27 04:16:46;;;;;;;16.03;5.00;;;;;;;;;;5055013;28;20254;-78
2022/04/27 04:19:12;;;;;;;7.67;4.83;;;;;;;;;;5055207;28;20265;-77
2022/04/27 04:21:38;;;;;;;9.20;5.03;;;;;;;;;;5054918;28;20266;-77
2022/04/27 04:24:04;;;;;;;7.75;4.85;;;;;;;;;;5054197;28;20389;-78
2022/04/27 04:29:13;;;;;;;8.55;4.82;;;;;;;;;;5055172;28;20036;-77
2022/04/27 04:31:38;;;;;;;8.13;4.85;;;;;;;;;;5055332;28;20029;-77
2022/04/27 04:34:04;;;;;;;6.60;4.37;;;;;;;;;;5054873;28;20021;-77
2022/04/27 04:36:29;;;;;;;7.32;4.85;;;;;;;;;;5053393;28;20258;-78
2022/04/27 04:38:55;;;;;;;9.57;4.90;;;;;;;;;;5055206;28;20029;-77
2022/04/27 04:41:20;;;;;;;11.82;4.80;;;;;;;;;;5053442;28;20265;-77
2022/04/27 04:43:45;;;;;;;7.03;4.50;;;;;;;;;;5054623;28;20041;-77
2022/04/27 04:46:10;;;;;;;7.77;4.87;;;;;;;;;;5054578;28;20486;-77
2022/04/27 04:48:35;;;;;;;9.13;5.40;;;;;;;;;;5054646;28;20808;-77
2022/04/27 04:51:01;;;;;;;7.57;4.85;;;;;;;;;;5054607;28;20794;-77
2022/04/27 04:53:27;;;;;;;7.97;5.20;;;;;;;;;;5054428;28;20489;-77
2022/04/27 04:55:52;;;;;;;7.70;4.68;;;;;;;;;;5054487;28;20028;-77
2022/04/27 04:58:17;;;;;;;6.43;4.27;;;;;;;;;;5054723;28;20024;-77
2022/04/27 05:00:43;;;;;;;7.47;4.57;;;;;;;;;;5054299;28;20258;-77
2022/04/27 05:03:09;;;;;;;7.35;4.35;;;;;;;;;;5054124;28;20306;-77
2022/04/27 05:05:38;;;;;;;7.15;4.60;;;;;;;;;;5054312;28;20021;-76
2022/04/27 05:08:05;;;;;;;8.48;4.43;;;;;;;;;;5054088;28;20031;-77
2022/04/27 05:10:30;;;;;;;6.95;4.20;;;;;;;;;;5053937;28;20032;-77
2022/04/27 05:12:55;;;;;;;6.27;4.13;;;;;;;;;;5054687;28;20044;-77
2022/04/27 05:15:21;;;;;;;7.25;4.43;;;;;;;;;;5053739;28;20269;-77
2022/04/27 05:17:46;;;;;;;8.30;4.55;;;;;;;;;;5054774;28;20024;-77
2022/04/27 05:20:11;;;;;;;6.73;4.57;;;;;;;;;;5053943;28;20029;-77
2022/04/27 05:22:40;;;;;;;6.78;4.43;;;;;;;;;;5053778;28;20265;-78
2022/04/27 05:25:11;;;;;;;9.30;5.28;;;;;;;;;;5052657;28;20075;-77
2022/04/27 05:27:39;;;;;;;8.00;4.60;;;;;;;;;;5052434;28;20024;-78
2022/04/27 05:32:50;;;;;;;8.88;4.50;;;;;;;;;;5054168;28;20056;-77
2022/04/27 05:35:16;;;;;;;7.63;4.05;;;;;;;;;;5053489;28;20433;-78
2022/04/27 05:37:41;;;;;;;7.05;4.00;;;;;;;;;;5052210;28;20478;-77
2022/04/27 05:40:08;;;;;;;8.85;4.57;;;;;;;;;;5053347;28;20104;-77
2022/04/27 05:42:35;;;;;;;11.10;4.68;;;;;;;;;;5052476;28;20383;-77
2022/04/27 05:45:00;;;;;;;8.43;4.43;;;;;;;;;;5053815;28;20029;-77
2022/04/27 05:47:25;;;;;;;7.38;4.65;;;;;;;;;;5053985;28;20046;-77
2022/04/27 05:49:51;;;;;;;7.03;4.60;;;;;;;;;;5053924;28;20032;-77
2022/04/27 05:52:18;;;;;;;8.75;4.35;;;;;;;;;;5054307;28;20045;-77
2022/04/27 05:54:43;;;;;;;9.13;4.60;;;;;;;;;;5054436;28;20048;-78
2022/04/27 05:57:08;;;;;;;6.60;4.57;;;;;;;;;;5054214;28;20032;-77
2022/04/27 05:59:34;;;;;;;7.67;4.70;;;;;;;;;;5052977;28;20466;-77
2022/04/27 06:01:59;;;;;;;8.07;4.70;;;;;;;;;;5053519;28;20808;-78
2022/04/27 06:04:26;;;;;;;7.50;4.85;;;;;;;;;;5053645;28;20040;-77
2022/04/27 06:06:52;;;;;;;7.90;5.07;;;;;;;;;;5052265;28;20024;-77
2022/04/27 06:09:17;;;;;;;7.65;5.05;;;;;;;;;;5053394;28;20405;-78
2022/04/27 06:11:42;;;;;;;7.68;4.75;;;;;;;;;;5053954;28;20029;-77
2022/04/27 06:14:07;;;;;;;6.90;4.53;;;;;;;;;;5053348;28;20025;-77
2022/04/27 06:16:33;;;;;;;6.13;4.30;;;;;;;;;;5053224;28;20129;-77
2022/04/27 06:18:58;;;;;;;9.65;5.20;;;;;;;;;;5053493;28;20075;-77
2022/04/27 06:21:23;;;;;;;10.30;4.75;;;;;;;;;;5053158;28;20116;-76
2022/04/27 06:23:49;;;;;;;8.88;4.95;;;;;;;;;;5052521;28;20031;-77
2022/04/27 06:26:14;;;;;;;9.25;5.38;;;;;;;;;;5052746;28;20027;-77
2022/04/27 06:28:39;;;;;;;13.90;4.82;;;;;;;;;;5052905;28;20032;-78
2022/04/27 06:31:05;;;;;;;9.93;4.80;;;;;;;;;;5053402;28;20108;-77
2022/04/27 06:33:30;;;;;;;9.23;5.30;;;;;;;;;;5052731;28;20021;-77
2022/04/27 06:35:55;;;;;;;7.15;4.63;;;;;;;;;;5051430;28;20508;-78
2022/04/27 06:38:21;;;;;;;6.33;4.87;;;;;;;;;;5053967;28;20021;-77
2022/04/27 06:40:46;;;;;;;7.07;4.60;;;;;;;;;;5057538;28;20261;-77
2022/04/27 06:43:11;;;;;;;8.18;5.00;;;;;;;;;;5056576;28;20021;-77
2022/04/27 06:45:36;;;;;;;6.30;4.33;;;;;;;;;;5055222;28;20029;-77
2022/04/27 06:48:05;;;;;;;8.30;4.50;;;;;;;;;;5056860;28;20266;-77
2022/04/27 06:50:30;;;;;;;7.55;5.07;;;;;;;;;;5055017;28;20025;-77
2022/04/27 06:52:59;;;;;;;10.20;4.90;;;;;;;;;;5056338;28;20396;-77
2022/04/27 06:55:25;;;;;;;9.95;4.97;;;;;;;;;;5056926;28;20016;-77
2022/04/27 06:57:50;;;;;;;8.07;5.13;;;;;;;;;;5057341;28;20025;-78
2022/04/27 07:00:15;;;;;;;6.18;4.78;;;;;;;;;;5057330;28;20405;-78
2022/04/27 07:02:41;;;;;;;9.45;5.05;;;;;;;;;;5057167;28;20029;-78
2022/04/27 07:05:09;;;;;;;6.70;4.90;;;;;;;;;;5055800;28;20021;-77
2022/04/27 07:07:35;;;;;;;10.48;4.85;;;;;;;;;;5056841;28;20105;-77
2022/04/27 07:10:00;;;;;;;9.82;4.70;;;;;;;;;;5054791;28;20494;-76
2022/04/27 07:12:25;;;;;;;9.60;4.78;;;;;;;;;;5054899;28;20061;-77
2022/04/27 07:14:51;;;;;;;10.00;4.90;;;;;;;;;;5056059;28;20023;-77
2022/04/27 07:17:17;;;;;;;7.78;4.90;;;;;;;;;;5056390;28;20333;-76
2022/04/27 07:19:42;;;;;;;8.68;5.10;;;;;;;;;;5056051;28;20037;-77
2022/04/27 07:22:07;;;;;;;12.23;4.78;;;;;;;;;;5056028;28;20028;-77
2022/04/27 07:24:33;;;;;;;9.18;5.10;;;;;;;;;;5055947;28;20024;-77
2022/04/27 07:26:59;;;;;;;7.80;4.88;;;;;;;;;;5056356;28;20025;-78
2022/04/27 07:29:24;;;;;;;10.63;5.00;;;;;;;;;;5057420;28;20402;-78
2022/04/27 07:31:50;;;;;;;10.23;4.97;;;;;;;;;;5057623;28;20482;-78
2022/04/27 07:34:15;;;;;;;7.35;5.05;;;;;;;;;;5057986;28;20186;-78
2022/04/27 07:36:41;;;;;;;8.10;4.78;;;;;;;;;;5057777;28;20425;-78
2022/04/27 07:39:06;;;;;;;7.97;5.30;;;;;;;;;;5057007;28;20025;-78
2022/04/27 07:41:33;;;;;;;7.88;5.45;;;;;;;;;;5058728;28;20021;-78
2022/04/27 07:43:58;;;;;;;14.55;5.10;;;;;;;;;;5057402;28;20033;-78
2022/04/27 07:46:24;;;;;;;12.50;5.38;;;;;;;;;;5057017;28;20389;-78
2022/04/27 07:48:51;;;;;;;8.85;5.43;;;;;;;;;;5055609;28;20079;-77
2022/04/27 07:51:17;;;;;;;12.63;5.18;;;;;;;;;;5054750;28;20024;-77
2022/04/27 07:53:42;;;;;;;7.45;5.25;;;;;;;;;;5055430;28;20470;-78
2022/04/27 07:56:07;;;;;;;8.70;5.70;;;;;;;;;;5055641;28;20020;-77
2022/04/27 07:58:33;;;;;;;8.25;5.70;;;;;;;;;;5055954;28;20032;-77
2022/04/27 08:01:00;;;;;;;11.35;5.80;;;;;;;;;;5054239;28;20593;-77
2022/04/27 08:03:25;;;;;;;7.40;5.68;;;;;;;;;;5055500;28;20077;-77
2022/04/27 08:05:50;;;;;;;8.20;5.60;;;;;;;;;;5054073;28;20461;-78
2022/04/27 08:08:15;;;;;;;8.45;5.32;;;;;;;;;;5055299;28;20740;-77
2022/04/27 08:10:41;;;;;;;9.70;5.67;;;;;;;;;;5055336;28;20171;-78
2022/04/27 08:13:06;;;;;;;10.20;6.20;;;;;;;;;;5055038;28;20265;-78
2022/04/27 08:15:31;;;;;;;9.30;6.25;;;;;;;;;;5055632;28;20281;-78
2022/04/27 08:17:59;;;;;;;13.68;6.20;;;;;;;;;;5054046;28;20029;-77
2022/04/27 08:23:13;;;;;;;8.55;5.80;;;;;;;;;;5055217;28;20074;-77
2022/04/27 08:25:39;;;;;;;10.93;6.90;;;;;;;;;;5055223;28;20029;-77
2022/04/27 08:28:06;;;;;;;8.75;6.35;;;;;;;;;;5056088;28;20067;-77
2022/04/27 08:30:36;;;;;;;10.38;6.72;;;;;;;;;;5054936;28;20017;-77
2022/04/27 08:33:03;;;;;;;11.18;6.40;;;;;;;;;;5055341;28;20383;-77
2022/04/27 08:35:29;;;;;;;13.93;7.50;;;;;;;;;;5053882;28;20067;-78
2022/04/27 08:37:54;;;;;;;17.40;6.57;;;;;;;;;;5055391;28;20059;-78
2022/04/27 08:40:20;;;;;;;10.20;6.57;;;;;;;;;;5056141;28;20028;-78
2022/04/27 08:42:47;;;;;;;14.25;7.05;;;;;;;;;;5054468;28;20021;-78
2022/04/27 08:45:13;;;;;;;11.73;6.35;;;;;;;;;;5054834;28;20039;-77
2022/04/27 08:47:38;;;;;;;12.65;7.22;;;;;;;;;;5055064;28;20115;-78
2022/04/27 08:50:14;;;;;;;16.08;6.60;;;;;;;;;;5055417;28;20017;-78
2022/04/27 08:52:41;;;;;;;10.60;6.78;;;;;;;;;;5055488;28;20363;-78
2022/04/27 08:55:07;;;;;;;15.32;7.32;;;;;;;;;;5054751;28;20021;-77
2022/04/27 08:57:32;;;;;;;11.15;6.68;;;;;;;;;;5054351;28;20025;-77
2022/04/27 08:59:57;;;;;;;12.87;6.77;;;;;;;;;;5054070;28;20032;-76
2022/04/27 09:02:27;;;;;;;12.00;6.80;;;;;;;;;;5052238;28;20269;-78
2022/04/27 09:05:15;;;;;;;11.30;6.30;;;;;;;;;;5054331;28;20309;-78
2022/04/27 09:07:51;;;;;;;14.82;6.97;;;;;;;;;;5055818;28;20390;-78
2022/04/27 09:10:18;;;;;;;13.00;6.82;;;;;;;;;;5054867;28;20035;-79
2022/04/27 09:12:45;;;;;;;12.32;6.85;;;;;;;;;;5056894;28;20029;-79
2022/04/27 09:15:10;;;;;;;11.95;6.50;;;;;;;;;;5057060;28;20075;-79
2022/04/27 09:23:19;;;;;;;11.82;6.78;;;;;;;;;;5056605;28;20082;-78
2022/04/27 09:25:44;;;;;;;9.32;6.90;;;;;;;;;;5056265;28;20036;-78
2022/04/27 09:28:10;;;;;;;10.47;7.00;;;;;;;;;;5053860;28;20017;-77
2022/04/27 09:30:35;;;;;;;11.53;6.63;;;;;;;;;;5053600;28;20262;-77
2022/04/27 09:33:00;;;;;;;9.45;6.88;;;;;;;;;;5054615;28;20310;-78
2022/04/27 09:35:34;;;;;;;9.55;6.82;;;;;;;;;;5054126;28;20029;-77
2022/04/27 09:38:12;;;;;;;;;;;;;;;;;;5054972;28;20048;-77
2022/04/27 09:40:47;;;;;;;12.27;7.22;;;;;;;;;;5054733;28;20046;-78
2022/04/27 09:43:14;;;;;;;11.65;6.47;;;;;;;;;;5054466;28;20126;-77
2022/04/27 09:45:41;;;;;;;13.75;8.00;;;;;;;;;;5054687;28;20075;-78
2022/04/27 09:48:08;;;;;;;11.00;7.05;;;;;;;;;;5054433;28;20445;-78
2022/04/27 09:50:58;;;;;;;11.50;6.88;;;;;;;;;;5054023;28;20024;-78
2022/04/27 09:53:24;;;;;;;13.38;6.53;;;;;;;;;;5053249;28;20028;-76
2022/04/27 09:55:51;;;;;;;8.65;5.38;;;;;;;;;;5053585;28;20382;-76
2022/04/27 09:58:18;;;;;;;10.30;5.78;;;;;;;;;;5051797;28;20043;-76
2022/04/27 10:00:48;;;;;;;9.63;5.93;;;;;;;;;;5052351;28;20053;-77
2022/04/27 10:03:15;;;;;;;11.35;5.65;;;;;;;;;;5053608;28;20032;-77
2022/04/27 10:05:42;;;;;;;10.65;5.80;;;;;;;;;;5051608;28;20036;-76
2022/04/27 10:08:09;;;;;;;9.00;5.93;;;;;;;;;;5052410;28;20486;-77
2022/04/27 10:10:42;;;;;;;8.82;5.53;;;;;;;;;;5053258;28;20036;-77
2022/04/27 10:13:11;;;;;;;6.78;5.03;;;;;;;;;;5052743;28;20021;-77
2022/04/27 10:15:41;;;;;;;6.75;4.70;;;;;;;;;;5051920;28;20024;-77
2022/04/27 10:18:06;;;;;;;7.50;4.38;;;;;;;;;;5053589;28;20060;-77
2022/04/27 10:20:33;;;;;;;4.85;3.60;;;;;;;;;;5052122;28;20021;-78
2022/04/27 10:23:28;;;;;;;6.53;4.50;;;;;;;;;;5052861;28;20466;-77
2022/04/27 10:26:12;;;;;;;;;;;;;;;;;;5052100;28;20029;-77
2022/04/27 10:28:48;;;;;;;5.50;3.00;;;;;;;;;;5051436;28;20354;-76
2022/04/27 10:31:47;;;;;;;6.75;4.03;;;;;;;;;;5052758;28;20025;-77
2022/04/27 10:34:21;;;;;;;7.90;4.60;;;;;;;;;;5052670;28;20017;-77
2022/04/27 10:36:47;;;;;;;6.32;4.20;;;;;;;;;;5053663;28;20031;-77
2022/04/27 10:39:15;;;;;;;10.35;3.85;;;;;;;;;;5053092;28;20445;-77
2022/04/27 10:41:48;;;;;;;7.45;4.30;;;;;;;;;;5053209;28;20032;-78
2022/04/27 10:44:14;;;;;;;8.50;4.18;;;;;;;;;;5051913;28;20017;-77
2022/04/27 10:46:43;;;;;;;6.90;4.13;;;;;;;;;;5051554;28;20028;-77
2022/04/27 10:49:38;;;;;;;6.25;3.67;;;;;;;;;;5052594;28;20021;-77
2022/04/27 10:52:06;;;;;;;4.82;3.30;;;;;;;;;;5042617;28;20444;-77
2022/04/27 10:54:34;;;;;;;8.57;3.70;;;;;;;;;;5052501;28;20104;-77
2022/04/27 10:57:15;;;;;;;4.13;2.83;;;;;;;;;;5051703;28;20367;-77
2022/04/27 10:59:59;;;;;;;3.85;2.47;;;;;;;;;;5052735;28;20068;-78
2022/04/27 11:02:35;;;;;;;4.55;3.00;;;;;;;;;;5052244;28;20017;-77
2022/04/27 11:05:05;;;;;;;4.38;2.70;;;;;;;;;;5051638;28;20029;-77
2022/04/27 11:07:51;;;;;;;4.30;2.90;;;;;;;;;;5052414;28;20024;-77
2022/04/27 11:10:21;;;;;;;4.70;3.10;;;;;;;;;;5051041;28;20040;-77
2022/04/27 11:12:49;;;;;;;4.45;2.92;;;;;;;;;;5052625;28;20021;-77
2022/04/27 11:15:18;;;;;;;3.67;2.80;;;;;;;;;;5052995;28;20116;-77
2022/04/27 11:17:44;;;;;;;4.35;2.90;;;;;;;;;;5051661;28;20024;-77
2022/04/27 11:20:22;;;;;;;5.55;3.30;;;;;;;;;;5052281;28;20028;-76
2022/04/27 11:22:48;;;;;;;3.90;2.78;;;;;;;;;;5051225;28;20020;-77
2022/04/27 11:25:22;;;;;;;5.43;2.67;;;;;;;;;;5054697;28;20486;-77
2022/04/27 11:27:48;;;;;;;5.05;2.85;;;;;;;;;;5056170;28;20021;-77
2022/04/27 11:30:14;;;;;;;6.90;3.35;;;;;;;;;;5055777;28;20032;-77
2022/04/27 11:32:39;;;;;;;6.25;3.13;;;;;;;;;;5055922;28;20031;-77
2022/04/27 11:35:05;;;;;;;4.72;2.92;;;;;;;;;;5056033;28;20478;-77
2022/04/27 11:37:35;;;;;;;4.65;2.92;;;;;;;;;;5054484;28;20021;-77
2022/04/27 11:40:12;;;;;;;3.88;2.75;;;;;;;;;;5055844;28;20371;-77
2022/04/27 11:42:41;;;;;;;4.78;3.20;;;;;;;;;;5055873;28;20486;-77
2022/04/27 11:45:08;;;;;;;4.53;2.72;;;;;;;;;;5054429;28;20433;-77
2022/04/27 11:47:33;;;;;;;4.00;2.92;;;;;;;;;;5055920;28;20075;-77
2022/04/27 11:50:00;;;;;;;4.13;2.95;;;;;;;;;;5055310;28;20489;-77
2022/04/27 11:52:27;;;;;;;4.40;2.67;;;;;;;;;;5055458;28;20025;-78
2022/04/27 11:54:52;;;;;;;3.97;2.85;;;;;;;;;;5054263;28;20112;-77
2022/04/27 11:57:22;;;;;;;6.47;2.80;;;;;;;;;;5055403;28;20497;-77
2022/04/27 11:59:49;;;;;;;5.57;3.10;;;;;;;;;;5055899;28;20082;-77
2022/04/27 12:02:21;;;;;;;6.38;2.90;;;;;;;;;;5056797;28;20057;-78
2022/04/27 12:04:46;;;;;;;4.28;2.80;;;;;;;;;;5056726;28;20025;-78
2022/04/27 12:07:13;;;;;;;5.10;3.00;;;;;;;;;;5056728;28;20031;-78
2022/04/27 12:09:38;;;;;;;4.07;2.90;;;;;;;;;;5056430;28;20447;-78
2022/04/27 12:12:09;;;;;;;3.20;2.73;;;;;;;;;;5056408;28;20059;-78
2022/04/27 12:14:35;;;;;;;3.85;2.78;;;;;;;;;;5055254;28;20475;-78
2022/04/27 12:17:01;;;;;;;3.92;2.90;;;;;;;;;;5056949;28;20410;-78
2022/04/27 12:19:27;;;;;;;4.35;2.72;;;;;;;;;;5056397;28;20032;-78
2022/04/27 12:22:10;;;;;;;6.28;2.97;;;;;;;;;;5056602;28;20036;-78
2022/04/27 12:24:45;;;;;;;6.00;3.10;;;;;;;;;;5056337;28;20037;-78
2022/04/27 12:27:20;;;;;;;3.75;2.55;;;;;;;;;;5055795;28;20039;-78
2022/04/27 12:29:46;;;;;;;3.50;2.45;;;;;;;;;;5055475;28;20025;-78
2022/04/27 12:32:12;;;;;;;5.90;3.30;;;;;;;;;;5053680;28;20517;-77
2022/04/27 12:37:32;;;;;;;3.58;2.83;;;;;;;;;;5054743;28;20044;-78
2022/04/27 12:40:14;;;;;;;4.47;3.33;;;;;;;;;;5054532;28;20124;-77
2022/04/27 12:43:04;;;;;;;4.00;3.10;;;;;;;;;;5053300;28;20482;-77
2022/04/27 12:45:30;;;;;;;5.32;2.85;;;;;;;;;;5054680;28;20021;-77
2022/04/27 12:47:55;;;;;;;4.45;3.10;;;;;;;;;;5054402;28;20444;-77
2022/04/27 12:50:20;;;;;;;4.63;3.03;;;;;;;;;;5054540;28;20186;-77
2022/04/27 12:52:47;;;;;;;5.63;3.00;;;;;;;;;;5054261;28;20316;-77
2022/04/27 12:55:14;;;;;;;7.07;2.70;;;;;;;;;;5054393;28;20017;-77
2022/04/27 12:57:44;;;;;;;5.00;3.20;;;;;;;;;;5054224;28;20091;-78
2022/04/27 13:00:11;;;;;;;5.00;2.80;;;;;;;;;;5054488;28;20102;-77
2022/04/27 13:02:36;;;;;;;5.78;2.88;;;;;;;;;;5054648;28;20159;-77
2022/04/27 13:05:01;;;;;;;4.50;2.90;;;;;;;;;;5055258;28;20115;-77
2022/04/27 13:07:26;;;;;;;3.95;3.00;;;;;;;;;;5057803;28;20392;-77
2022/04/27 13:12:36;;;;;;;5.07;3.80;;;;;;;;;;5057564;28;20078;-77
2022/04/27 13:15:03;;;;;;;4.65;3.08;;;;;;;;;;5054309;28;20052;-76
2022/04/27 13:17:28;;;;;;;5.20;3.70;;;;;;;;;;5053712;28;20025;-77
2022/04/27 13:19:54;;;;;;;6.40;3.85;;;;;;;;;;5054886;28;20488;-77
2022/04/27 13:22:19;;;;;;;4.05;3.30;;;;;;;;;;5054818;28;20033;-77
2022/04/27 13:24:45;;;;;;;4.03;3.10;;;;;;;;;;5054239;28;20029;-77
2022/04/27 13:27:10;;;;;;;5.15;3.17;;;;;;;;;;5053768;28;20268;-77
2022/04/27 13:29:35;;;;;;;9.48;3.63;;;;;;;;;;5053615;28;20029;-77
2022/04/27 13:32:00;;;;;;;5.07;3.63;;;;;;;;;;5053895;28;20111;-77
2022/04/27 13:34:26;;;;;;;4.60;3.03;;;;;;;;;;5053532;28;20293;-76
2022/04/27 13:36:51;;;;;;;5.05;2.92;;;;;;;;;;5052218;28;20021;-76
2022/04/27 13:39:17;;;;;;;4.32;3.20;;;;;;;;;;5053363;28;20159;-76
2022/04/27 13:41:43;;;;;;;4.00;2.92;;;;;;;;;;5053404;28;20029;-77
2022/04/27 13:44:08;;;;;;;4.72;3.20;;;;;;;;;;5053090;28;20052;-76
2022/04/27 13:46:33;;;;;;;4.00;3.10;;;;;;;;;;5051716;28;20131;-78
2022/04/27 13:48:59;;;;;;;5.18;3.17;;;;;;;;;;5052771;28;20017;-77
2022/04/27 13:51:24;;;;;;;3.97;3.00;;;;;;;;;;5053290;28;20056;-77
2022/04/27 13:53:49;;;;;;;4.25;3.10;;;;;;;;;;5051850;28;20044;-77
2022/04/27 13:56:14;;;;;;;5.90;3.30;;;;;;;;;;5052064;28;20442;-77
2022/04/27 13:58:40;;;;;;;6.33;3.17;;;;;;;;;;5053110;28;20107;-77
2022/04/27 14:01:05;;;;;;;4.95;3.20;;;;;;;;;;5051872;28;20734;-77
2022/04/27 14:03:31;;;;;;;5.05;3.47;;;;;;;;;;5052939;28;20027;-77
2022/04/27 14:05:56;;;;;;;5.83;3.23;;;;;;;;;;5053275;28;20099;-76
2022/04/27 14:08:21;;;;;;;4.68;2.70;;;;;;;;;;5053231;28;20341;-78
2022/04/27 14:10:48;;;;;;;5.50;2.83;;;;;;;;;;5053744;28;20033;-78
2022/04/27 14:13:14;;;;;;;4.68;2.47;;;;;;;;;;5054614;28;20783;-78
2022/04/27 14:15:40;;;;;;;5.68;2.50;;;;;;;;;;5054180;28;20064;-77
2022/04/27 14:18:14;;;;;;;4.55;2.40;;;;;;;;;;5053823;28;20032;-78
2022/04/27 14:20:44;;;;;;;2.80;2.22;;;;;;;;;;5052193;28;20032;-78
2022/04/27 14:23:11;;;;;;;5.65;2.45;;;;;;;;;;5053953;28;20028;-78
2022/04/27 14:25:41;;;;;;;4.93;2.30;;;;;;;;;;5053304;28;20166;-77
2022/04/27 14:28:07;;;;;;;3.97;2.35;;;;;;;;;;5053439;28;20024;-77
2022/04/27 14:30:32;;;;;;;3.67;2.50;;;;;;;;;;5053589;28;20032;-78
2022/04/27 14:32:58;;;;;;;3.15;2.40;;;;;;;;;;5053733;28;20021;-78
2022/04/27 14:35:23;;;;;;;2.85;2.10;;;;;;;;;;5054008;28;20112;-77
2022/04/27 14:37:48;;;;;;;3.75;2.40;;;;;;;;;;5053134;28;20031;-77
2022/04/27 14:40:14;;;;;;;4.53;2.50;;;;;;;;;;5052615;28;20025;-77
2022/04/27 14:42:40;;;;;;;3.13;2.30;;;;;;;;;;5051576;28;20726;-77
2022/04/27 14:45:07;;;;;;;3.80;2.35;;;;;;;;;;5053746;28;20168;-77
2022/04/27 14:47:33;;;;;;;3.45;2.40;;;;;;;;;;5053379;28;20025;-77
2022/04/27 14:49:58;;;;;;;3.63;2.28;;;;;;;;;;5053275;28;20028;-77
2022/04/27 14:52:24;;;;;;;2.55;1.95;;;;;;;;;;5051458;28;20545;-77
2022/04/27 14:54:49;;;;;;;4.13;2.60;;;;;;;;;;5051209;28;20071;-77
2022/04/27 14:57:14;;;;;;;3.25;2.15;;;;;;;;;;5051199;28;20049;-77
2022/04/27 14:59:40;;;;;;;4.35;2.40;;;;;;;;;;5055260;28;20066;-77
2022/04/27 15:02:05;;;;;;;4.22;2.10;;;;;;;;;;5057336;28;20021;-78
2022/04/27 15:04:31;;;;;;;4.20;2.55;;;;;;;;;;5056897;28;20028;-78